Time;durP1;ratioP1;P1;durP2;ratioP2;P2;SDS_P1;SDS_P2;PMS_P1;PMS_P2;Temp;Humidity;BMP_temperature;BMP_pressure;BME280_temperature;BME280_humidity;BME280_pressure;Samples;Min_cycle;Max_cycle;Signal;HPM_P1;HPM_P2
2021/05/08 00:01:07;;;;;;;2.65;1.60;;;7.50;69.30;;;;;;5053951;28;20082;-69
2021/05/08 00:03:33;;;;;;;3.47;1.80;;;7.30;69.70;;;;;;5053900;28;20359;-69
2021/05/08 00:06:01;;;;;;;2.88;1.50;;;7.30;70.00;;;;;;5053345;28;20021;-69
2021/05/08 00:08:27;;;;;;;4.35;2.13;;;7.20;70.10;;;;;;5053628;28;20500;-68
2021/05/08 00:10:52;;;;;;;3.05;2.00;;;7.20;70.30;;;;;;5053858;28;20044;-69
2021/05/08 00:13:18;;;;;;;4.05;2.00;;;7.20;71.00;;;;;;5053741;28;20032;-68
2021/05/08 00:15:44;;;;;;;2.40;1.70;;;7.30;70.50;;;;;;5054113;28;20433;-68
2021/05/08 00:18:09;;;;;;;6.35;1.95;;;7.20;70.30;;;;;;5054734;28;20032;-68
2021/05/08 00:20:35;;;;;;;3.10;1.70;;;7.10;70.50;;;;;;5053660;28;20116;-68
2021/05/08 00:23:01;;;;;;;3.22;1.40;;;7.10;70.90;;;;;;5054320;28;20163;-69
2021/05/08 00:25:27;;;;;;;2.75;1.70;;;7.10;70.80;;;;;;5053565;28;20525;-68
2021/05/08 00:27:52;;;;;;;4.65;1.80;;;7.10;70.50;;;;;;5054372;28;20036;-69
2021/05/08 00:30:18;;;;;;;4.65;1.60;;;7.00;71.10;;;;;;5054855;28;20040;-69
2021/05/08 00:32:44;;;;;;;2.58;1.60;;;7.00;71.00;;;;;;5054184;28;20025;-68
2021/05/08 00:35:09;;;;;;;2.97;1.92;;;7.00;70.90;;;;;;5053360;28;20109;-68
2021/05/08 00:37:35;;;;;;;2.75;1.80;;;7.00;71.20;;;;;;5053505;28;20488;-69
2021/05/08 00:40:02;;;;;;;3.60;1.40;;;6.90;71.30;;;;;;5052328;28;20470;-68
2021/05/08 00:42:27;;;;;;;2.83;1.60;;;6.90;71.70;;;;;;5054457;28;20036;-68
2021/05/08 00:44:53;;;;;;;3.22;1.58;;;6.90;71.50;;;;;;5053857;28;20025;-69
2021/05/08 00:47:19;;;;;;;2.60;1.60;;;7.00;71.30;;;;;;5053071;28;20029;-69
2021/05/08 00:49:46;;;;;;;3.33;1.73;;;7.00;71.70;;;;;;5052431;28;20469;-69
2021/05/08 00:52:13;;;;;;;4.15;1.52;;;6.90;72.20;;;;;;5053115;28;20029;-68
2021/05/08 00:54:40;;;;;;;3.00;1.88;;;6.90;71.40;;;;;;5054119;28;20055;-69
2021/05/08 00:57:06;;;;;;;2.42;1.58;;;6.80;72.20;;;;;;5052596;28;20025;-68
2021/05/08 00:59:31;;;;;;;3.50;2.00;;;6.80;72.00;;;;;;5052910;28;20115;-69
2021/05/08 01:01:57;;;;;;;3.87;1.70;;;6.70;71.70;;;;;;5053509;28;20487;-69
2021/05/08 01:04:23;;;;;;;2.50;1.93;;;6.60;72.40;;;;;;5052859;28;20025;-68
2021/05/08 01:06:48;;;;;;;4.72;1.83;;;6.60;72.70;;;;;;5052106;28;20381;-69
2021/05/08 01:09:15;;;;;;;3.43;1.60;;;6.50;72.60;;;;;;5052575;28;20117;-69
2021/05/08 01:11:41;;;;;;;2.60;1.50;;;6.60;72.80;;;;;;5052733;28;20392;-68
2021/05/08 01:14:07;;;;;;;3.00;1.93;;;6.50;73.00;;;;;;5052745;28;20478;-69
2021/05/08 01:16:33;;;;;;;4.13;2.30;;;6.50;73.40;;;;;;5052605;28;20114;-69
2021/05/08 01:18:59;;;;;;;2.70;1.67;;;6.50;73.60;;;;;;5051881;28;20401;-69
2021/05/08 01:21:24;;;;;;;2.00;1.60;;;6.50;73.40;;;;;;5052480;28;20029;-68
2021/05/08 01:23:51;;;;;;;4.67;1.70;;;6.50;73.20;;;;;;5051876;28;20040;-68
2021/05/08 01:26:17;;;;;;;2.27;1.47;;;6.50;73.60;;;;;;5052318;28;20534;-69
2021/05/08 01:28:43;;;;;;;2.70;1.80;;;6.40;73.50;;;;;;5051239;28;20086;-70
2021/05/08 01:31:10;;;;;;;3.80;1.97;;;6.30;73.50;;;;;;5052130;28;20037;-68
2021/05/08 01:33:36;;;;;;;2.30;1.50;;;6.30;73.80;;;;;;5053271;28;20025;-68
2021/05/08 01:36:02;;;;;;;3.30;1.90;;;6.30;74.00;;;;;;5051580;28;20025;-68
2021/05/08 01:38:28;;;;;;;2.23;1.43;;;6.20;73.70;;;;;;5052176;28;20036;-69
2021/05/08 01:41:07;;;;;;;4.17;1.80;;;6.20;74.10;;;;;;5051317;28;20056;-69
2021/05/08 01:43:33;;;;;;;1.97;1.53;;;6.20;74.30;;;;;;5052289;28;20385;-68
2021/05/08 01:45:59;;;;;;;2.37;1.57;;;6.20;74.50;;;;;;5052779;28;20025;-68
2021/05/08 01:48:26;;;;;;;4.70;1.80;;;6.10;74.50;;;;;;5051922;28;20055;-69
2021/05/08 01:50:52;;;;;;;2.07;1.43;;;6.10;74.60;;;;;;5051389;28;20051;-69
2021/05/08 01:53:17;;;;;;;2.00;1.37;;;6.00;74.70;;;;;;5052909;28;20462;-69
2021/05/08 01:55:44;;;;;;;3.13;1.63;;;6.00;74.90;;;;;;5052973;28;20025;-68
2021/05/08 01:58:10;;;;;;;2.33;1.70;;;5.80;75.70;;;;;;5051806;28;20077;-68
2021/05/08 02:00:42;;;;;;;3.20;1.50;;;5.80;75.10;;;;;;5051923;28;20025;-68
2021/05/08 02:03:09;;;;;;;3.25;1.63;;;5.80;74.90;;;;;;5051165;28;20465;-68
2021/05/08 02:05:36;;;;;;;2.70;1.43;;;5.80;74.60;;;;;;5053077;28;20036;-69
2021/05/08 02:08:04;;;;;;;2.20;1.43;;;5.90;74.50;;;;;;5051970;28;20428;-68
2021/05/08 02:10:31;;;;;;;3.90;1.57;;;5.90;74.20;;;;;;5053006;28;20048;-68
2021/05/08 02:12:58;;;;;;;2.97;1.57;;;5.90;74.30;;;;;;5052351;28;20126;-68
2021/05/08 02:15:23;;;;;;;2.57;1.60;;;5.90;74.60;;;;;;5052790;28;20138;-68
2021/05/08 02:17:49;;;;;;;2.23;1.33;;;5.90;74.20;;;;;;5050896;28;20116;-69
2021/05/08 02:20:22;;;;;;;1.97;1.40;;;5.90;74.10;;;;;;5052755;28;20377;-69
2021/05/08 02:22:48;;;;;;;2.13;1.30;;;6.00;73.50;;;;;;5050986;28;20386;-69
2021/05/08 02:25:14;;;;;;;3.73;1.70;;;6.00;73.50;;;;;;5052655;28;20028;-68
2021/05/08 02:27:41;;;;;;;1.73;1.50;;;6.00;73.70;;;;;;5052900;28;20029;-68
2021/05/08 02:30:09;;;;;;;2.57;1.33;;;5.90;73.70;;;;;;5051923;28;20056;-68
2021/05/08 02:32:36;;;;;;;2.73;1.67;;;5.90;74.00;;;;;;5052531;28;20029;-68
2021/05/08 02:35:04;;;;;;;2.20;1.30;;;5.90;74.00;;;;;;5051983;28;20028;-69
2021/05/08 02:37:30;;;;;;;2.90;1.30;;;6.00;73.60;;;;;;5052525;28;20021;-68
2021/05/08 02:39:55;;;;;;;3.20;1.40;;;6.00;73.50;;;;;;5050111;28;20132;-68
2021/05/08 02:42:21;;;;;;;4.47;1.70;;;6.00;73.50;;;;;;5051100;28;20032;-68
2021/05/08 02:44:47;;;;;;;1.40;1.10;;;6.00;73.60;;;;;;5052457;28;20025;-68
2021/05/08 02:47:19;;;;;;;2.83;1.53;;;6.00;73.60;;;;;;5051101;28;20160;-68
2021/05/08 02:49:48;;;;;;;;;;;6.00;73.40;;;;;;5051459;28;20063;-68
2021/05/08 02:52:14;;;;;;;3.30;1.50;;;5.90;73.80;;;;;;5052380;28;19909;-68
2021/05/08 02:54:40;;;;;;;2.80;1.40;;;5.90;73.70;;;;;;5052158;28;20053;-68
2021/05/08 02:57:06;;;;;;;2.40;1.57;;;5.90;74.00;;;;;;5051710;28;20477;-68
2021/05/08 02:59:32;;;;;;;2.03;1.50;;;5.90;74.20;;;;;;5052304;28;20033;-68
2021/05/08 03:01:58;;;;;;;2.30;1.50;;;5.90;74.20;;;;;;5051664;28;20485;-68
2021/05/08 03:04:24;;;;;;;1.43;1.20;;;5.90;74.10;;;;;;5052219;28;20445;-68
2021/05/08 03:06:49;;;;;;;2.37;1.47;;;5.80;74.00;;;;;;5051355;28;20039;-70
2021/05/08 03:09:15;;;;;;;2.07;1.30;;;5.80;74.30;;;;;;5050762;28;20087;-69
2021/05/08 03:11:41;;;;;;;1.80;1.40;;;5.80;73.90;;;;;;5050930;28;20041;-69
2021/05/08 03:14:07;;;;;;;1.50;1.17;;;5.80;73.90;;;;;;5050322;28;20072;-69
2021/05/08 03:16:34;;;;;;;2.33;1.47;;;5.70;74.20;;;;;;5050874;28;20074;-69
2021/05/08 03:18:59;;;;;;;1.80;1.30;;;5.60;74.90;;;;;;5050261;28;20124;-69
2021/05/08 03:21:25;;;;;;;2.90;1.40;;;5.60;75.00;;;;;;5050788;28;20067;-69
2021/05/08 03:23:51;;;;;;;3.43;1.47;;;5.60;74.70;;;;;;5051089;28;20045;-69
2021/05/08 03:26:17;;;;;;;2.67;1.23;;;5.60;74.80;;;;;;5050914;28;20025;-69
2021/05/08 03:28:42;;;;;;;2.90;1.53;;;5.60;74.80;;;;;;5051964;28;20481;-69
2021/05/08 03:31:08;;;;;;;1.33;1.10;;;5.50;75.00;;;;;;5051127;28;20067;-69
2021/05/08 03:33:34;;;;;;;2.30;1.30;;;5.50;75.10;;;;;;5051922;28;20115;-69
2021/05/08 03:35:59;;;;;;;2.60;1.33;;;5.50;75.40;;;;;;5051284;28;20036;-69
2021/05/08 03:38:25;;;;;;;2.80;1.40;;;5.50;75.20;;;;;;5051956;28;20044;-69
2021/05/08 03:40:51;;;;;;;1.97;1.53;;;5.50;75.20;;;;;;5049694;28;20061;-73
2021/05/08 03:43:16;;;;;;;2.00;1.43;;;5.50;75.60;;;;;;5050570;28;20036;-69
2021/05/08 03:45:42;;;;;;;1.40;1.30;;;5.40;75.90;;;;;;5051849;28;20029;-69
2021/05/08 03:48:08;;;;;;;2.80;1.50;;;5.50;75.60;;;;;;5049813;28;20056;-69
2021/05/08 03:50:33;;;;;;;3.37;1.30;;;5.50;75.40;;;;;;5050664;28;20033;-69
2021/05/08 03:52:59;;;;;;;2.00;1.50;;;5.40;75.60;;;;;;5051565;28;20044;-69
2021/05/08 03:55:25;;;;;;;1.97;1.20;;;5.40;76.00;;;;;;5055468;28;20094;-69
2021/05/08 03:57:50;;;;;;;2.43;1.33;;;5.30;76.90;;;;;;5054124;28;20029;-69
2021/05/08 04:00:17;;;;;;;1.77;1.30;;;5.20;76.60;;;;;;5054986;28;20029;-69
2021/05/08 04:02:42;;;;;;;2.33;1.73;;;5.40;75.90;;;;;;5054057;28;20025;-69
2021/05/08 04:05:09;;;;;;;1.63;1.47;;;5.30;75.60;;;;;;5053325;28;20052;-69
2021/05/08 04:07:35;;;;;;;2.10;1.47;;;5.20;76.10;;;;;;5053960;28;20025;-69
2021/05/08 04:10:02;;;;;;;2.23;1.60;;;5.30;75.80;;;;;;5052974;28;20044;-69
2021/05/08 04:12:27;;;;;;;1.47;1.23;;;5.30;75.60;;;;;;5053852;28;20390;-69
2021/05/08 04:14:53;;;;;;;1.87;1.40;;;5.20;75.40;;;;;;5054792;28;20025;-72
2021/05/08 04:17:18;;;;;;;2.37;1.50;;;5.10;76.00;;;;;;5054134;28;20056;-69
2021/05/08 04:19:44;;;;;;;2.57;1.50;;;5.00;76.50;;;;;;5053684;28;20466;-69
2021/05/08 04:22:10;;;;;;;4.20;1.70;;;4.90;76.80;;;;;;5053082;28;20036;-69
2021/05/08 04:24:36;;;;;;;2.33;1.70;;;4.90;76.90;;;;;;5055141;28;20094;-69
2021/05/08 04:27:02;;;;;;;1.67;1.30;;;4.80;77.00;;;;;;5052938;28;20025;-69
2021/05/08 04:29:27;;;;;;;2.30;1.40;;;4.90;76.80;;;;;;5054991;28;20082;-69
2021/05/08 04:31:53;;;;;;;2.27;1.57;;;4.90;76.50;;;;;;5054783;28;20036;-70
2021/05/08 04:34:19;;;;;;;2.33;1.60;;;4.80;76.80;;;;;;5054736;28;20025;-69
2021/05/08 04:36:45;;;;;;;2.37;1.60;;;4.80;76.90;;;;;;5053466;28;20029;-69
2021/05/08 04:39:11;;;;;;;3.80;1.53;;;4.80;76.80;;;;;;5052264;28;20059;-69
2021/05/08 04:41:36;;;;;;;2.77;1.57;;;4.80;77.20;;;;;;5054648;28;20025;-69
2021/05/08 04:44:02;;;;;;;3.00;1.50;;;4.70;77.50;;;;;;5052667;28;20021;-69
2021/05/08 04:46:28;;;;;;;2.73;1.37;;;4.70;77.50;;;;;;5053215;28;20031;-69
2021/05/08 04:48:54;;;;;;;2.77;1.50;;;4.80;77.50;;;;;;5053185;28;20461;-69
2021/05/08 04:51:21;;;;;;;4.07;1.60;;;4.80;77.30;;;;;;5054435;28;20029;-69
2021/05/08 04:53:48;;;;;;;2.20;1.57;;;4.70;77.60;;;;;;5054409;28;20029;-69
2021/05/08 04:56:15;;;;;;;1.90;1.30;;;4.80;77.20;;;;;;5052461;28;20367;-69
2021/05/08 04:58:41;;;;;;;3.03;1.43;;;4.80;77.20;;;;;;5053101;28;20040;-69
2021/05/08 05:01:06;;;;;;;2.67;1.63;;;4.90;78.10;;;;;;5052566;28;20025;-69
2021/05/08 05:03:32;;;;;;;2.07;1.10;;;4.90;77.90;;;;;;5053536;28;20033;-69
2021/05/08 05:05:58;;;;;;;4.13;1.50;;;4.90;78.00;;;;;;5053073;28;20091;-69
2021/05/08 05:08:23;;;;;;;2.10;1.50;;;4.90;78.00;;;;;;5052638;28;20037;-69
2021/05/08 05:10:50;;;;;;;5.30;1.70;;;5.00;77.80;;;;;;5052735;28;20044;-68
2021/05/08 05:13:16;;;;;;;2.67;1.67;;;5.00;77.70;;;;;;5052151;28;20029;-68
2021/05/08 05:15:42;;;;;;;2.00;1.23;;;5.00;77.40;;;;;;5053977;28;20456;-69
2021/05/08 05:18:07;;;;;;;3.67;1.10;;;5.10;77.40;;;;;;5053209;28;20095;-68
2021/05/08 05:20:33;;;;;;;2.23;1.47;;;5.20;77.50;;;;;;5052503;28;20108;-69
2021/05/08 05:22:58;;;;;;;2.97;1.50;;;5.20;77.30;;;;;;5051229;28;20474;-69
2021/05/08 05:25:24;;;;;;;1.77;1.27;;;5.20;77.40;;;;;;5053715;28;20043;-69
2021/05/08 05:27:50;;;;;;;1.83;1.40;;;5.20;76.30;;;;;;5052365;28;20417;-69
2021/05/08 05:30:15;;;;;;;2.40;1.40;;;5.20;76.00;;;;;;5053046;28;20028;-69
2021/05/08 05:32:41;;;;;;;2.17;1.10;;;5.30;76.60;;;;;;5052359;28;20029;-69
2021/05/08 05:35:07;;;;;;;2.10;1.40;;;5.30;76.40;;;;;;5051675;28;20386;-69
2021/05/08 05:37:33;;;;;;;1.87;1.27;;;5.40;76.70;;;;;;5053414;28;20017;-69
2021/05/08 05:39:58;;;;;;;2.13;1.27;;;5.40;76.50;;;;;;5051065;28;20060;-69
2021/05/08 05:42:24;;;;;;;2.37;1.40;;;5.40;76.40;;;;;;5052051;28;20132;-69
2021/05/08 05:44:50;;;;;;;2.50;1.50;;;5.50;76.70;;;;;;5052023;28;20458;-68
2021/05/08 05:47:22;;;;;;;2.37;1.60;;;5.50;77.00;;;;;;5051333;28;20032;-68
2021/05/08 05:49:49;;;;;;;1.77;1.50;;;5.60;76.60;;;;;;5052175;28;20064;-69
2021/05/08 05:52:14;;;;;;;2.27;1.40;;;5.70;76.30;;;;;;5052357;28;20059;-69
2021/05/08 05:54:45;;;;;;;2.87;1.33;;;5.60;76.30;;;;;;5053258;28;20025;-69
2021/05/08 05:57:10;;;;;;;2.53;1.70;;;5.80;76.10;;;;;;5052300;28;20371;-69
2021/05/08 05:59:36;;;;;;;2.87;1.60;;;5.90;75.60;;;;;;5051939;28;20129;-69
2021/05/08 06:02:03;;;;;;;2.57;1.30;;;5.90;75.10;;;;;;5052683;28;20021;-69
2021/05/08 06:04:28;;;;;;;3.80;1.67;;;6.00;74.20;;;;;;5052948;28;20068;-68
2021/05/08 06:06:54;;;;;;;2.10;1.23;;;6.00;73.90;;;;;;5051620;28;20057;-69
2021/05/08 06:09:19;;;;;;;3.23;1.53;;;6.10;74.40;;;;;;5052230;28;20091;-69
2021/05/08 06:11:45;;;;;;;4.83;1.70;;;6.10;74.80;;;;;;5051630;28;20040;-69
2021/05/08 06:14:10;;;;;;;2.23;1.50;;;6.20;74.00;;;;;;5050964;28;20036;-69
2021/05/08 06:16:36;;;;;;;2.07;1.50;;;6.30;73.40;;;;;;5050944;28;20477;-69
2021/05/08 06:19:02;;;;;;;5.10;1.73;;;6.30;73.10;;;;;;5050794;28;20063;-69
2021/05/08 06:21:28;;;;;;;2.37;1.60;;;6.40;72.70;;;;;;5052721;28;20028;-69
2021/05/08 06:23:53;;;;;;;3.23;1.47;;;6.40;72.40;;;;;;5051379;28;20025;-69
2021/05/08 06:26:19;;;;;;;2.27;1.60;;;6.50;72.50;;;;;;5051998;28;20031;-69
2021/05/08 06:28:45;;;;;;;4.23;1.70;;;6.60;73.10;;;;;;5052241;28;20055;-69
2021/05/08 06:31:10;;;;;;;3.00;1.83;;;6.60;72.90;;;;;;5051934;28;20505;-69
2021/05/08 06:33:36;;;;;;;2.27;1.67;;;6.70;72.60;;;;;;5052555;28;20048;-69
2021/05/08 06:36:01;;;;;;;3.30;1.70;;;6.80;72.50;;;;;;5051672;28;20079;-70
2021/05/08 06:38:27;;;;;;;3.43;1.90;;;6.90;72.00;;;;;;5052227;28;20032;-69
2021/05/08 06:40:53;;;;;;;3.30;1.80;;;7.00;71.70;;;;;;5051178;28;20060;-69
2021/05/08 06:43:18;;;;;;;1.80;1.50;;;7.00;71.80;;;;;;5051972;28;20031;-69
2021/05/08 06:45:44;;;;;;;3.53;1.80;;;7.10;72.50;;;;;;5051202;28;20025;-69
2021/05/08 06:48:10;;;;;;;3.87;1.63;;;7.30;73.30;;;;;;5051787;28;20029;-69
2021/05/08 06:50:35;;;;;;;2.13;1.70;;;7.40;72.60;;;;;;5051121;28;20040;-69
2021/05/08 06:53:02;;;;;;;1.93;1.43;;;7.60;72.40;;;;;;5052475;28;20057;-69
2021/05/08 06:55:28;;;;;;;2.20;1.70;;;7.70;71.40;;;;;;5051288;28;20155;-69
2021/05/08 06:57:53;;;;;;;5.57;1.85;;;7.80;71.50;;;;;;5052357;28;20466;-69
2021/05/08 07:00:20;;;;;;;3.03;1.85;;;7.90;70.20;;;;;;5051432;28;20382;-69
2021/05/08 07:02:45;;;;;;;2.60;1.60;;;8.00;69.20;;;;;;5052022;28;20036;-69
2021/05/08 07:05:11;;;;;;;2.70;1.70;;;8.10;69.10;;;;;;5050298;28;20025;-69
2021/05/08 07:07:37;;;;;;;2.13;1.73;;;8.10;68.50;;;;;;5051949;28;20047;-69
2021/05/08 07:10:05;;;;;;;2.28;1.40;;;8.20;67.80;;;;;;5051233;28;20504;-73
2021/05/08 07:12:31;;;;;;;3.05;1.88;;;8.30;67.90;;;;;;5050918;28;20040;-69
2021/05/08 07:14:56;;;;;;;5.20;2.10;;;8.30;67.60;;;;;;5050869;28;20025;-69
2021/05/08 07:17:22;;;;;;;4.03;2.10;;;8.30;67.00;;;;;;5051522;28;20021;-69
2021/05/08 07:19:48;;;;;;;3.28;2.00;;;8.40;67.20;;;;;;5052331;28;20037;-69
2021/05/08 07:22:13;;;;;;;4.00;2.35;;;8.40;67.00;;;;;;5050217;28;20036;-69
2021/05/08 07:24:39;;;;;;;4.40;2.35;;;8.40;66.80;;;;;;5050739;28;20462;-69
2021/05/08 07:27:04;;;;;;;6.20;2.78;;;8.40;66.50;;;;;;5050222;28;20025;-71
2021/05/08 07:29:30;;;;;;;4.60;2.22;;;8.50;66.40;;;;;;5054730;28;20094;-69
2021/05/08 07:31:56;;;;;;;3.42;1.90;;;8.50;66.40;;;;;;5054364;28;20075;-69
2021/05/08 07:34:21;;;;;;;2.97;2.25;;;8.60;66.10;;;;;;5054077;28;20080;-69
2021/05/08 07:36:47;;;;;;;3.80;1.85;;;8.60;66.30;;;;;;5055901;28;20458;-69
2021/05/08 07:39:12;;;;;;;4.13;2.17;;;8.60;66.50;;;;;;5053636;28;20057;-69
2021/05/08 07:41:38;;;;;;;3.17;2.20;;;8.60;66.80;;;;;;5055517;28;20412;-69
2021/05/08 07:44:04;;;;;;;4.05;2.40;;;8.80;66.20;;;;;;5054424;28;20021;-69
2021/05/08 07:46:31;;;;;;;4.53;2.00;;;8.90;65.80;;;;;;5055694;28;20159;-69
2021/05/08 07:48:56;;;;;;;4.70;2.30;;;8.90;65.80;;;;;;5054354;28;20474;-69
2021/05/08 07:51:22;;;;;;;6.20;2.28;;;8.90;65.40;;;;;;5053734;28;20035;-69
2021/05/08 07:53:47;;;;;;;3.75;2.45;;;8.90;65.60;;;;;;5054258;28;20029;-69
2021/05/08 07:56:13;;;;;;;5.70;2.40;;;9.00;66.10;;;;;;5053633;28;20064;-69
2021/05/08 07:58:39;;;;;;;2.60;2.03;;;9.10;66.10;;;;;;5055136;28;20535;-69
2021/05/08 08:01:04;;;;;;;5.47;2.15;;;9.20;65.40;;;;;;5054120;28;20029;-69
2021/05/08 08:03:30;;;;;;;4.05;2.25;;;9.30;65.10;;;;;;5053462;28;20140;-69
2021/05/08 08:05:57;;;;;;;3.10;2.30;;;9.40;65.00;;;;;;5054012;28;20070;-69
2021/05/08 08:08:22;;;;;;;4.03;2.00;;;9.40;64.20;;;;;;5053111;28;20091;-69
2021/05/08 08:10:48;;;;;;;5.97;2.30;;;9.50;64.70;;;;;;5055181;28;20462;-69
2021/05/08 08:13:13;;;;;;;3.38;2.15;;;9.50;64.50;;;;;;5054780;28;20109;-69
2021/05/08 08:15:39;;;;;;;3.17;2.25;;;9.50;64.50;;;;;;5055070;28;20032;-69
2021/05/08 08:18:09;;;;;;;2.20;1.73;;;9.50;64.60;;;;;;5054810;28;20078;-69
2021/05/08 08:20:35;;;;;;;3.45;2.22;;;9.70;64.70;;;;;;5054767;28;20580;-69
2021/05/08 08:23:01;;;;;;;5.85;2.40;;;9.80;64.20;;;;;;5055043;28;20028;-69
2021/05/08 08:25:26;;;;;;;3.53;2.05;;;9.80;63.80;;;;;;5054409;28;20025;-69
2021/05/08 08:27:52;;;;;;;5.65;1.90;;;10.00;64.90;;;;;;5053706;28;20483;-69
2021/05/08 08:30:18;;;;;;;2.28;1.77;;;10.10;65.00;;;;;;5052870;28;20029;-69
2021/05/08 08:32:44;;;;;;;3.63;1.85;;;10.30;64.90;;;;;;5053603;28;20068;-69
2021/05/08 08:35:09;;;;;;;4.75;2.35;;;10.40;63.50;;;;;;5053028;28;20056;-69
2021/05/08 08:37:35;;;;;;;5.75;2.10;;;10.50;63.20;;;;;;5054813;28;20032;-69
2021/05/08 08:40:01;;;;;;;2.90;2.13;;;10.60;61.40;;;;;;5052907;28;20057;-70
2021/05/08 08:42:27;;;;;;;3.58;2.17;;;10.90;59.90;;;;;;5053752;28;20587;-69
2021/05/08 08:44:53;;;;;;;3.65;1.88;;;11.00;60.30;;;;;;5053476;28;20124;-69
2021/05/08 08:47:31;;;;;;;4.05;2.30;;;11.10;61.90;;;;;;5054176;28;20025;-69
2021/05/08 08:50:08;;;;;;;3.15;2.03;;;11.20;60.50;;;;;;5054564;28;20052;-69
2021/05/08 08:52:34;;;;;;;4.68;2.28;;;11.30;60.50;;;;;;5053362;28;20036;-69
2021/05/08 08:55:01;;;;;;;2.95;2.10;;;11.40;60.20;;;;;;5054466;28;20021;-69
2021/05/08 08:57:35;;;;;;;2.97;2.05;;;11.50;60.70;;;;;;5052611;28;20028;-69
2021/05/08 09:00:05;;;;;;;3.58;2.15;;;11.60;60.20;;;;;;5053056;28;20043;-69
2021/05/08 09:02:31;;;;;;;3.75;2.40;;;11.70;60.70;;;;;;5053753;28;20462;-68
2021/05/08 09:04:58;;;;;;;4.63;2.35;;;11.80;59.50;;;;;;5053076;28;20083;-69
2021/05/08 09:07:27;;;;;;;5.88;2.65;;;11.90;58.00;;;;;;5053381;28;20053;-69
2021/05/08 09:09:53;;;;;;;5.05;2.25;;;11.90;57.60;;;;;;5052720;28;20469;-69
2021/05/08 09:12:19;;;;;;;3.33;1.80;;;11.90;57.30;;;;;;5053543;28;20043;-69
2021/05/08 09:14:50;;;;;;;3.53;2.00;;;12.00;56.50;;;;;;5052834;28;20096;-69
2021/05/08 09:17:27;;;;;;;3.00;1.52;;;12.10;56.90;;;;;;5053177;28;20356;-69
2021/05/08 09:19:58;;;;;;;2.53;1.95;;;12.10;58.00;;;;;;5052793;28;20029;-69
2021/05/08 09:22:34;;;;;;;2.80;1.90;;;12.30;56.20;;;;;;5053380;28;20024;-69
2021/05/08 09:25:03;;;;;;;2.85;1.58;;;12.30;55.90;;;;;;5052554;28;20029;-69
2021/05/08 09:27:33;;;;;;;2.70;1.58;;;12.20;55.90;;;;;;5051904;28;20029;-69
2021/05/08 09:30:13;;;;;;;4.28;1.48;;;12.10;56.40;;;;;;5053392;28;20424;-69
2021/05/08 09:32:41;;;;;;;2.47;1.50;;;12.10;57.80;;;;;;5052480;28;20044;-69
2021/05/08 09:35:10;;;;;;;5.57;1.83;;;12.10;57.80;;;;;;5053394;28;20420;-69
2021/05/08 09:37:36;;;;;;;3.65;1.48;;;12.00;56.50;;;;;;5051721;28;20115;-69
2021/05/08 09:40:20;;;;;;;1.60;1.40;;;11.90;56.90;;;;;;5053316;28;20044;-69
2021/05/08 09:42:57;;;;;;;4.43;1.90;;;11.90;57.70;;;;;;5052544;28;20039;-69
2021/05/08 09:45:24;;;;;;;3.20;1.83;;;11.90;57.30;;;;;;5051716;28;20028;-69
2021/05/08 09:47:51;;;;;;;3.08;1.80;;;11.90;56.40;;;;;;5052072;28;20025;-69
2021/05/08 09:50:24;;;;;;;2.25;1.60;;;12.00;56.00;;;;;;5052177;28;20036;-70
2021/05/08 09:52:53;;;;;;;2.13;1.40;;;12.10;54.60;;;;;;5051723;28;20025;-69
2021/05/08 09:55:19;;;;;;;2.22;1.13;;;12.20;55.00;;;;;;5052689;28;20029;-70
2021/05/08 09:58:19;;;;;;;4.45;1.65;;;12.30;53.40;;;;;;5051940;28;20078;-69
2021/05/08 10:00:45;;;;;;;2.08;1.27;;;12.30;52.30;;;;;;5038673;28;20033;-69
2021/05/08 10:03:13;;;;;;;2.42;1.80;;;12.50;52.10;;;;;;5051815;28;20497;-69
2021/05/08 10:06:02;;;;;;;2.80;1.40;;;12.50;52.80;;;;;;5051797;28;20120;-69
2021/05/08 10:08:28;;;;;;;2.67;1.17;;;12.60;56.50;;;;;;5038048;28;20540;-69
2021/05/08 10:10:54;;;;;;;3.58;1.40;;;12.80;53.30;;;;;;5052692;28;20045;-69
2021/05/08 10:13:20;;;;;;;1.20;0.95;;;13.10;51.60;;;;;;5052466;28;20039;-69
2021/05/08 10:15:47;;;;;;;1.05;0.80;;;13.50;49.50;;;;;;5052891;28;20081;-69
2021/05/08 10:18:14;;;;;;;1.00;0.82;;;13.60;48.00;;;;;;5051628;28;20059;-69
2021/05/08 10:20:41;;;;;;;1.50;0.88;;;13.90;49.00;;;;;;5052623;28;20021;-69
2021/05/08 10:23:10;;;;;;;1.02;0.70;;;14.10;47.70;;;;;;5051493;28;20021;-69
2021/05/08 10:25:37;;;;;;;3.03;0.70;;;14.30;46.90;;;;;;5050884;28;20043;-69
2021/05/08 10:28:04;;;;;;;2.63;0.70;;;14.40;46.40;;;;;;5051417;28;20033;-69
2021/05/08 10:30:36;;;;;;;3.13;0.82;;;14.50;47.50;;;;;;5050672;28;20025;-68
2021/05/08 10:33:17;;;;;;;2.03;0.80;;;14.60;46.80;;;;;;5051576;28;20025;-68
2021/05/08 10:35:47;;;;;;;1.77;0.73;;;14.80;44.40;;;;;;5052590;28;20044;-68
2021/05/08 10:38:31;;;;;;;1.58;0.90;;;15.00;45.30;;;;;;5051176;28;20031;-68
2021/05/08 10:41:12;;;;;;;1.80;0.73;;;15.10;44.40;;;;;;5051251;28;20370;-68
2021/05/08 10:43:47;;;;;;;1.23;0.98;;;15.20;44.40;;;;;;5050612;28;20378;-68
2021/05/08 10:46:15;;;;;;;1.58;0.80;;;15.20;44.30;;;;;;5052364;28;20115;-69
2021/05/08 10:49:08;;;;;;;2.58;1.00;;;15.30;45.80;;;;;;5051225;28;20072;-68
2021/05/08 10:51:52;;;;;;;1.17;0.73;;;15.50;43.60;;;;;;5051578;28;20059;-68
2021/05/08 10:54:36;;;;;;;3.85;0.90;;;15.70;42.60;;;;;;5051759;28;20025;-69
2021/05/08 10:57:28;;;;;;;1.00;0.80;;;15.80;43.00;;;;;;5050948;28;20032;-69
2021/05/08 11:00:00;;;;;;;3.13;1.00;;;15.90;41.80;;;;;;5048468;28;20412;-68
2021/05/08 11:02:41;;;;;;;2.67;0.90;;;16.00;42.30;;;;;;5051300;28;20047;-68
2021/05/08 11:05:35;;;;;;;2.78;0.93;;;16.00;42.30;;;;;;5055044;28;20031;-68
2021/05/08 11:08:27;;;;;;;1.00;0.65;;;16.00;42.10;;;;;;5055992;28;20474;-68
2021/05/08 11:11:00;;;;;;;2.00;0.70;;;16.00;42.40;;;;;;5055141;28;20041;-68
2021/05/08 11:13:42;;;;;;;1.70;0.70;;;16.10;42.20;;;;;;5054283;28;20051;-68
2021/05/08 11:16:16;;;;;;;3.63;0.80;;;16.30;42.50;;;;;;5054978;28;20044;-68
2021/05/08 11:19:05;;;;;;;0.88;0.50;;;16.40;41.40;;;;;;5054165;28;20075;-70
2021/05/08 11:21:31;;;;;;;0.95;0.68;;;16.40;40.60;;;;;;5055533;28;20446;-71
2021/05/08 11:23:58;;;;;;;2.65;0.73;;;16.60;41.50;;;;;;5056069;28;20130;-68
2021/05/08 11:29:07;;;;;;;1.25;0.80;;;16.80;41.10;;;;;;5055912;28;20057;-69
2021/05/08 11:31:51;;;;;;;0.80;0.55;;;17.00;41.70;;;;;;5054169;28;20436;-69
2021/05/08 11:34:25;;;;;;;1.75;0.90;;;17.10;40.40;;;;;;5054633;28;20458;-68
2021/05/08 11:36:54;;;;;;;1.13;0.60;;;17.10;40.80;;;;;;5054565;28;20474;-69
2021/05/08 11:39:24;;;;;;;1.38;0.95;;;17.20;40.70;;;;;;5053689;28;20045;-69
2021/05/08 11:41:55;;;;;;;1.23;0.70;;;17.30;41.20;;;;;;5055689;28;20493;-68
2021/05/08 11:44:26;;;;;;;2.28;0.80;;;17.40;40.80;;;;;;5053907;28;20025;-68
2021/05/08 11:46:58;;;;;;;1.63;0.75;;;17.40;40.50;;;;;;5055588;28;20029;-68
2021/05/08 11:49:28;;;;;;;1.33;0.57;;;17.50;41.80;;;;;;5054911;28;20085;-69
2021/05/08 11:51:54;;;;;;;1.25;0.70;;;17.60;42.70;;;;;;5055551;28;20041;-68
2021/05/08 11:54:20;;;;;;;1.17;0.70;;;17.60;43.10;;;;;;5054892;28;20167;-72
2021/05/08 11:56:46;;;;;;;1.98;0.82;;;17.70;42.60;;;;;;5054359;28;20067;-69
2021/05/08 11:59:11;;;;;;;0.93;0.80;;;17.80;40.50;;;;;;5054186;28;20064;-69
2021/05/08 12:01:37;;;;;;;2.95;0.70;;;17.70;40.20;;;;;;5053422;28;20118;-69
2021/05/08 12:04:05;;;;;;;1.73;0.70;;;17.80;41.00;;;;;;5055267;28;20036;-68
2021/05/08 12:06:31;;;;;;;1.75;0.77;;;17.80;42.50;;;;;;5053328;28;20506;-69
2021/05/08 12:08:57;;;;;;;2.10;0.80;;;17.90;41.90;;;;;;5055086;28;20021;-68
2021/05/08 12:11:24;;;;;;;2.10;0.90;;;17.80;40.90;;;;;;5053390;28;20463;-69
2021/05/08 12:13:50;;;;;;;1.42;1.00;;;17.70;41.20;;;;;;5053682;28;20025;-69
2021/05/08 12:16:15;;;;;;;1.45;0.90;;;17.80;41.20;;;;;;5053924;28;20083;-68
2021/05/08 12:18:42;;;;;;;3.10;1.10;;;17.70;40.60;;;;;;5054570;28;20481;-69
2021/05/08 12:21:11;;;;;;;1.10;0.80;;;17.70;40.80;;;;;;5053822;28;20420;-69
2021/05/08 12:23:39;;;;;;;1.35;0.90;;;17.80;40.20;;;;;;5053194;28;20033;-69
2021/05/08 12:26:09;;;;;;;2.60;0.80;;;17.80;40.40;;;;;;5054628;28;20530;-69
2021/05/08 12:28:37;;;;;;;1.48;0.77;;;17.80;40.50;;;;;;5054317;28;20087;-69
2021/05/08 12:31:20;;;;;;;0.85;0.60;;;17.70;40.60;;;;;;5053826;28;20029;-68
2021/05/08 12:33:46;;;;;;;2.03;0.75;;;17.60;40.40;;;;;;5054291;28;20025;-68
2021/05/08 12:36:20;;;;;;;2.33;0.90;;;17.60;41.20;;;;;;5053588;28;20087;-68
2021/05/08 12:38:47;;;;;;;1.38;0.77;;;17.50;41.50;;;;;;5052756;28;20025;-68
2021/05/08 12:41:35;;;;;;;2.78;0.80;;;17.30;40.60;;;;;;5052958;28;20045;-68
2021/05/08 12:44:11;;;;;;;1.23;0.70;;;17.30;41.40;;;;;;5053675;28;20496;-68
2021/05/08 12:47:23;;;;;;;2.05;1.10;;;17.30;41.40;;;;;;5053739;28;20114;-68
2021/05/08 12:50:11;;;;;;;2.47;1.02;;;17.40;41.50;;;;;;5009259;28;20041;-68
2021/05/08 12:52:44;;;;;;;3.53;0.77;;;17.40;40.90;;;;;;5052691;28;20489;-68
2021/05/08 12:55:33;;;;;;;0.90;0.63;;;17.40;41.70;;;;;;5054450;28;20466;-68
2021/05/08 12:58:09;;;;;;;1.48;0.77;;;17.40;41.30;;;;;;5053087;28;20032;-68
2021/05/08 13:00:50;;;;;;;2.47;0.82;;;17.50;41.50;;;;;;5052518;28;20470;-68